Terminal Aerodrome Forecast
Issued by NWS

Home | Current Version | Previous Version | Text Only | Print | Product List | Glossary On
Versions: 1 2 3 4 5 6 7 8 9 10 11 12 13 14 15 16 17 18 19 20 21 22 23 24 25 26 27 28 29 30 31 32 33 34 35 36 37
000
FTUS41 KCTP 240228 AAB
TAFJST
TAF AMD
KJST 240228Z 2402/2424 24008KT 5SM RA BR FEW014 BKN080 OVC100
     FM240300 24005KT 4SM -SHRA BR OVC015
     FM240800 27008KT 4SM BR OVC003
     FM241400 28010KT P6SM BKN015
     FM242100 27011KT P6SM BKN100 PROB30 2421/2424 5SM TS BKN050CB=

USA.gov is the U.S. government's official web portal to all federal, state and local government web resources and services.